Latest Weather Observations for Robe Airport

IDS60801

Issued at 10:31 am CST Wednesday 27 July 2016 (issued every 30 minutes, with the page automatically refreshed every 10 minutes)

About weather observations | Map of weather stations | Latest weather observations for SA | Other Formats
Station Details ID: 026105 Name: ROBE AIRFIELD Lat: -37.18 Lon: 139.81 Height: 3.0 m
Data from the previous 72 hours. | See also: Recent months at Robe Airport
Date/Time
CST
Temp
°C
App
Temp
°C
Dew
Point
°C
Rel
Hum
%
Delta-T
°C
Wind Press
QNH
hPa
Press
MSL
hPa
Rain since
9am
mm
Dir  Spd
km/h
Gust
km/h
Spd
kts
Gust
kts
27/10:30am 12.5 8.0 6.3 66 2.9 SW 19 30 10 16 1020.7 1020.7 0.0
27/10:00am 11.5 6.8 5.2 65 2.9 SW 19 30 10 16 1020.2 1020.2 0.0
27/09:30am 11.1 5.7 4.3 63 3.0 SW 22 32 12 17 1019.7 1019.7 0.0
27/09:00am 10.5 5.4 4.2 65 2.8 SW 20 28 11 15 1019.2 1019.2 19.6
27/08:30am 10.4 4.8 5.2 70 2.4 SW 24 35 13 19 1018.9 1018.9 19.6
27/08:00am 9.8 5.7 6.0 77 1.7 SW 17 24 9 13 1018.5 1018.5 19.6
27/07:30am 8.9 5.2 6.5 85 1.1 SW 15 28 8 15 1017.9 1017.9 19.6
27/07:00am 9.5 4.2 5.1 74 2.0 SSW 22 33 12 18 1017.5 1017.5 19.4
27/06:30am 9.8 4.6 5.6 75 1.9 SSW 22 43 12 23 1016.6 1016.6 19.4
27/06:00am 9.6 3.0 6.1 79 1.6 SW 30 50 16 27 1016.0 1016.0 19.4
27/05:52am 10.2 4.0 6.0 75 1.9 SW 28 50 15 27 1015.7 1015.7 19.4
27/05:30am 9.8 3.0 3.1 63 2.9 SSW 28 39 15 21 1015.4 1015.4 19.4
27/05:00am 10.2 3.3 4.8 69 2.4 SSW 30 44 16 24 1014.5 1014.5 19.4
27/04:30am 9.9 3.1 5.1 72 2.2 SSW 30 48 16 26 1013.7 1013.7 19.4
27/04:00am 10.0 3.7 5.6 74 2.0 SSW 28 48 15 26 1012.9 1012.9 19.4
27/03:30am 10.0 2.0 5.6 74 2.0 SSW 37 57 20 31 1012.0 1012.0 19.4
27/03:22am 10.3 2.8 6.1 75 1.9 SSW 35 56 19 30 1011.9 1011.9 19.4
27/03:00am 10.2 2.7 8.0 86 1.1 SW 37 52 20 28 1011.5 1011.5 19.4
27/02:30am 10.7 3.7 8.5 86 1.1 SW 35 54 19 29 1010.7 1010.7 19.4
27/02:23am 11.2 5.6 8.9 86 1.1 SW 28 50 15 27 1010.6 1010.6 19.2
27/02:00am 11.0 4.7 8.8 86 1.1 SW 32 46 17 25 1009.9 1009.9 19.2
27/01:39am 11.3 5.6 8.5 83 1.4 SW 28 46 15 25 1009.4 1009.4 19.2
27/01:30am 11.6 5.1 8.1 79 1.7 SW 32 43 17 23 1009.2 1009.2 19.2
27/01:00am 11.3 5.7 8.7 84 1.3 SW 28 43 15 23 1008.6 1008.6 19.2
27/12:30am 10.6 4.5 8.4 86 1.1 SW 30 50 16 27 1008.0 1008.0 19.2
27/12:26am 11.1 5.6 9.2 88 0.9 SW 28 50 15 27 1008.0 1008.0 19.2
27/12:00am 11.9 8.0 8.6 80 1.6 WSW 19 35 10 19 1007.4 1007.4 18.8
 
Date/Time
CST
Temp
°C
App
Temp
°C
Dew
Point
°C
Rel
Hum
%
Delta-T
°C
Wind Press
QNH
hPa
Press
MSL
hPa
Rain since
9am
mm
Dir  Spd
km/h
Gust
km/h
Spd
kts
Gust
kts
26/11:30pm 11.7 7.2 8.6 81 1.5 SW 22 33 12 18 1006.9 1006.9 18.8
26/11:00pm 11.8 6.7 7.5 75 2.1 SW 24 41 13 22 1006.4 1006.4 18.8
26/10:30pm 11.3 6.1 8.9 85 1.2 WSW 26 44 14 24 1005.9 1005.9 18.8
26/10:00pm 11.1 6.3 8.8 86 1.1 WSW 24 37 13 20 1005.3 1005.3 18.8
26/09:31pm 11.2 5.5 8.4 83 1.4 SW 28 46 15 25 1004.7 1004.7 18.6
26/09:30pm 11.3 6.0 8.5 83 1.4 SW 26 46 14 25 1004.7 1004.7 18.6
26/09:05pm 10.6 5.0 8.7 88 0.9 WSW 28 48 15 26 1004.3 1004.3 18.6
26/09:00pm 11.2 6.0 8.9 86 1.1 WSW 26 48 14 26 1004.3 1004.3 18.6
26/08:58pm 11.3 5.7 8.7 84 1.3 WSW 28 48 15 26 1004.1 1004.1 18.6
26/08:30pm 10.7 6.6 8.8 88 0.9 SW 20 43 11 23 1003.6 1003.6 18.6
26/08:00pm 10.4 6.0 8.8 90 0.8 WSW 22 37 12 20 1002.8 1002.8 18.4
26/07:30pm 10.4 7.9 8.3 87 1.0 WNW 11 19 6 10 1002.4 1002.4 17.8
26/07:00pm 10.2 6.6 8.5 89 0.8 WNW 17 28 9 15 1002.2 1002.2 17.4
26/06:30pm 9.9 6.0 8.7 92 0.6 WNW 19 30 10 16 1002.1 1002.1 17.4
26/06:18pm 10.6 3.8 9.4 92 0.6 NW 35 52 19 28 1002.2 1002.2 17.2
26/06:00pm 11.0 3.9 9.6 91 0.7 NNW 37 52 20 28 1001.8 1001.8 14.6
26/05:33pm 10.9 3.7 9.0 88 0.9 NNW 37 56 20 30 1001.9 1001.9 14.4
26/05:30pm 11.0 3.7 8.9 87 1.0 NNW 37 54 20 29 1002.0 1002.0 14.4
26/05:05pm 10.4 3.6 9.3 93 0.5 NNW 35 63 19 34 1002.1 1002.1 14.4
26/05:00pm 10.3 3.6 9.7 96 0.3 NNW 35 50 19 27 1002.1 1002.1 14.4
26/04:30pm 10.6 3.8 9.2 91 0.7 NNW 35 50 19 27 1002.8 1002.8 9.6
26/04:00pm 10.7 2.6 8.8 88 0.9 NNW 41 56 22 30 1003.4 1003.4 9.0
26/03:30pm 10.4 1.9 8.5 88 0.9 NNW 43 63 23 34 1004.1 1004.1 8.8
26/03:18pm 10.3 2.7 9.2 93 0.5 NNW 39 59 21 32 1004.3 1004.3 8.8
26/03:00pm 10.8 1.8 8.9 88 0.9 NNW 46 65 25 35 1004.6 1004.6 8.2
26/02:30pm 10.5 2.0 9.4 93 0.6 NNW 44 65 24 35 1005.1 1005.1 8.2
26/02:00pm 9.9 3.4 8.8 93 0.5 NNW 33 61 18 33 1006.0 1006.0 7.6
26/01:58pm 10.2 4.6 8.8 91 0.7 NNW 28 57 15 31 1006.1 1006.1 7.0
26/01:30pm 10.1 4.3 8.0 87 1.0 NNW 28 39 15 21 1006.7 1006.7 6.2
26/01:00pm 9.2 4.2 8.1 93 0.5 NW 24 35 13 19 1007.9 1007.9 6.2
26/12:30pm 9.6 5.3 7.7 88 0.9 NW 20 32 11 17 1008.9 1008.9 3.0
26/12:00pm 10.7 4.0 7.2 79 1.7 NNW 32 43 17 23 1009.0 1009.0 0.0
26/11:30am 10.7 5.4 8.5 86 1.1 NNW 26 35 14 19 1009.7 1009.7 0.0
26/11:00am 10.9 5.6 7.0 77 1.9 NNW 24 35 13 19 1010.2 1010.2 0.0
26/10:30am 10.5 4.8 6.8 78 1.7 NNW 26 33 14 18 1011.0 1011.0 0.0
26/10:00am 10.2 3.2 5.8 74 2.0 NW 32 46 17 25 1011.2 1011.2 0.0
26/09:30am 11.0 6.1 5.3 68 2.6 NW 20 28 11 15 1011.2 1011.2 0.0
26/09:00am 10.7 6.2 4.4 65 2.8 NW 17 26 9 14 1011.3 1011.3 8.0
26/08:30am 10.0 6.4 5.0 71 2.3 WNW 13 24 7 13 1011.5 1011.5 8.0
26/08:00am 9.6 5.5 4.2 69 2.4 WNW 15 20 8 11 1011.8 1011.8 8.0
26/07:30am 8.9 5.2 4.7 75 1.9 WNW 13 22 7 12 1011.8 1011.8 8.0
26/07:00am 8.7 4.7 5.1 78 1.6 WNW 15 24 8 13 1011.8 1011.8 8.0
26/06:30am 8.3 3.5 4.7 78 1.6 W 19 39 10 21 1011.9 1011.9 8.0
26/06:00am 9.6 5.2 2.7 62 2.9 W 15 22 8 12 1011.5 1011.5 7.8
26/05:30am 9.5 5.5 2.8 63 2.9 W 13 26 7 14 1011.6 1011.6 7.8
26/05:00am 9.2 4.9 3.4 67 2.5 WSW 15 26 8 14 1011.5 1011.5 7.8
26/04:30am 9.6 5.6 2.9 63 2.9 W 13 26 7 14 1011.6 1011.6 7.8
26/04:00am 9.6 5.7 3.6 66 2.6 WSW 13 26 7 14 1011.7 1011.7 7.8
26/03:30am 8.9 4.6 3.1 67 2.5 WSW 15 26 8 14 1011.9 1011.9 7.8
26/03:00am 8.8 3.8 3.6 70 2.2 WSW 19 32 10 17 1012.0 1012.0 7.8
26/02:30am 7.7 2.3 4.7 81 1.3 WSW 22 43 12 23 1012.3 1012.3 7.8
26/02:00am 8.6 4.1 4.4 75 1.8 WSW 17 28 9 15 1012.5 1012.5 7.8
26/01:30am 9.0 4.1 5.0 76 1.8 WSW 20 37 11 20 1012.2 1012.2 7.8
26/01:00am 9.5 5.4 4.3 70 2.3 WSW 15 32 8 17 1012.0 1012.0 7.2
26/12:30am 8.3 3.4 5.1 80 1.4 WSW 20 44 11 24 1012.1 1012.1 7.2
26/12:00am 9.3 3.9 4.3 71 2.2 W 22 39 12 21 1012.1 1012.1 7.2
 
Date/Time
CST
Temp
°C
App
Temp
°C
Dew
Point
°C
Rel
Hum
%
Delta-T
°C
Wind Press
QNH
hPa
Press
MSL
hPa
Rain since
9am
mm
Dir  Spd
km/h
Gust
km/h
Spd
kts
Gust
kts
25/11:30pm 8.8 4.3 6.1 83 1.2 WSW 19 35 10 19 1012.0 1012.0 7.2
25/11:00pm 9.6 4.6 4.8 72 2.1 W 20 33 11 18 1011.7 1011.7 6.6
25/10:30pm 8.4 3.5 5.2 80 1.4 WSW 20 37 11 20 1011.7 1011.7 6.6
25/10:12pm 9.0 2.1 4.4 73 2.0 W 30 54 16 29 1011.6 1011.6 6.6
25/10:00pm 9.6 3.6 3.6 66 2.6 W 24 43 13 23 1011.2 1011.2 6.6
25/09:45pm 9.5 2.8 3.7 67 2.5 WSW 28 48 15 26 1011.3 1011.3 6.6
25/09:30pm 8.6 2.7 4.0 73 2.0 WSW 24 48 13 26 1011.3 1011.3 6.6
25/09:00pm 9.1 2.6 4.7 74 2.0 W 28 57 15 31 1011.0 1011.0 6.6
25/08:57pm 9.5 3.0 4.5 71 2.2 W 28 57 15 31 1011.0 1011.0 6.4
25/08:30pm 9.9 4.3 3.6 65 2.8 W 22 39 12 21 1010.6 1010.6 6.4
25/08:00pm 8.3 1.7 4.3 76 1.7 W 28 41 15 22 1010.5 1010.5 6.4
25/07:30pm 10.1 4.2 4.0 66 2.7 W 24 39 13 21 1010.1 1010.1 5.8
25/07:00pm 9.9 2.9 2.0 58 3.3 W 28 46 15 25 1009.6 1009.6 5.8
25/06:30pm 9.9 2.5 1.8 57 3.4 W 30 54 16 29 1009.0 1009.0 5.8
25/06:00pm 10.2 2.4 1.8 56 3.5 WSW 32 59 17 32 1008.5 1008.5 5.8
25/05:30pm 10.8 3.5 2.6 57 3.5 W 30 48 16 26 1007.8 1007.8 5.8
25/05:00pm 10.9 3.9 3.9 62 3.1 WSW 30 52 16 28 1007.4 1007.4 5.8
25/04:30pm 11.0 3.5 3.3 59 3.4 W 32 61 17 33 1006.9 1006.9 5.8
25/04:00pm 11.2 4.2 5.9 70 2.5 WSW 32 57 17 31 1006.8 1006.8 5.8
25/03:30pm 11.7 3.1 2.5 53 4.0 W 37 72 20 39 1006.1 1006.1 5.8
25/03:00pm 11.9 4.6 5.3 64 3.1 W 33 61 18 33 1005.6 1005.6 5.8
25/02:30pm 12.2 4.6 5.6 64 3.1 W 35 61 19 33 1005.0 1005.0 5.8
25/02:00pm 11.2 3.7 7.9 80 1.6 W 37 59 20 32 1005.1 1005.1 5.8
25/01:30pm 9.7 3.7 8.5 92 0.6 WSW 30 54 16 29 1004.7 1004.7 5.8
25/01:21pm 10.4 4.7 9.8 96 0.3 W 30 54 16 29 1004.7 1004.7 5.6
25/01:15pm 10.3 2.8 9.5 95 0.4 WNW 39 72 21 39 1004.8 1004.8 5.6
25/01:10pm 11.1 2.6 10.5 96 0.3 NW 46 72 25 39 1004.7 1004.7 5.4
25/01:00pm 11.8 2.6 10.9 94 0.5 NNW 50 69 27 37 1003.3 1003.3 2.8
25/12:39pm 12.5 3.5 10.2 86 1.2 NNW 48 70 26 38 1003.7 1003.7 1.6
25/12:30pm 12.7 4.1 10.4 86 1.2 NNW 46 61 25 33 1004.0 1004.0 1.6
25/12:00pm 13.6 5.0 10.2 80 1.8 NW 46 67 25 36 1004.9 1004.9 1.6
25/11:40am 12.8 4.4 9.8 82 1.5 NW 44 69 24 37 1005.5 1005.5 1.6
25/11:30am 12.7 4.4 9.5 81 1.6 NNW 43 57 23 31 1005.8 1005.8 1.6
25/11:06am 12.4 5.4 10.0 85 1.2 NW 37 59 20 32 1006.6 1006.6 1.4
25/11:00am 12.3 5.7 9.9 85 1.2 NW 35 48 19 26 1006.6 1006.6 1.4
25/10:30am 11.6 5.5 10.5 93 0.6 NW 33 46 18 25 1007.4 1007.4 1.2
25/10:10am 11.5 6.0 10.4 93 0.6 NW 30 48 16 26 1007.9 1007.9 1.0
25/10:00am 11.9 6.3 10.0 88 1.0 NW 30 44 16 24 1008.0 1008.0 0.0
25/09:30am 13.2 8.3 8.5 73 2.4 NW 24 35 13 19 1008.4 1008.4 0.0
25/09:00am 12.4 7.2 7.3 71 2.5 NW 24 41 13 22 1008.4 1008.4 7.8
25/08:30am 11.6 8.4 8.6 82 1.5 WNW 15 22 8 12 1009.0 1009.0 7.8
25/08:00am 11.5 7.5 8.2 80 1.6 WNW 19 30 10 16 1009.5 1009.5 7.8
25/07:30am 10.6 7.0 8.4 86 1.1 WNW 17 24 9 13 1009.8 1009.8 7.8
25/07:00am 11.1 6.7 6.6 74 2.1 WNW 19 28 10 15 1009.6 1009.6 7.8
25/06:30am 10.4 6.0 6.5 77 1.8 WNW 19 24 10 13 1009.7 1009.7 7.8
25/06:00am 9.8 6.0 6.0 77 1.8 W 15 24 8 13 1009.9 1009.9 7.8
25/05:30am 11.1 6.9 5.6 69 2.5 W 17 28 9 15 1009.8 1009.8 7.4
25/05:00am 11.2 6.7 4.4 63 3.1 W 17 28 9 15 1009.8 1009.8 7.4
25/04:30am 11.1 6.6 4.3 63 3.1 WSW 17 28 9 15 1009.8 1009.8 7.4
25/04:00am 11.1 5.7 4.6 64 2.9 WSW 22 39 12 21 1009.7 1009.7 7.4
25/03:30am 11.0 6.2 5.5 69 2.5 WSW 20 39 11 21 1009.4 1009.4 7.4
25/03:00am 10.3 4.9 6.3 76 1.9 WSW 24 48 13 26 1009.4 1009.4 7.4
25/02:51am 10.6 4.3 5.6 71 2.3 WSW 28 59 15 32 1009.5 1009.5 7.4
25/02:30am 11.3 5.9 6.2 71 2.4 WSW 24 44 13 24 1009.1 1009.1 7.4
25/02:00am 10.5 6.0 7.0 79 1.7 WSW 20 39 11 21 1008.9 1008.9 7.4
25/01:40am 11.4 5.3 6.5 72 2.3 WSW 28 48 15 26 1008.6 1008.6 7.4
25/01:30am 11.0 5.8 7.1 77 1.9 WSW 24 48 13 26 1008.6 1008.6 7.4
25/01:14am 10.8 5.0 7.9 82 1.4 WSW 28 46 15 25 1008.3 1008.3 7.2
25/01:00am 10.6 5.8 8.9 89 0.8 WSW 24 43 13 23 1008.2 1008.2 7.2
25/12:37am 10.6 4.9 8.4 86 1.1 SW 28 48 15 26 1007.7 1007.7 6.8
25/12:30am 11.0 6.5 8.6 85 1.2 WSW 22 39 12 21 1007.7 1007.7 6.8
25/12:00am 11.5 4.9 7.6 77 1.9 SW 32 52 17 28 1007.1 1007.1 6.6
 
Date/Time
CST
Temp
°C
App
Temp
°C
Dew
Point
°C
Rel
Hum
%
Delta-T
°C
Wind Press
QNH
hPa
Press
MSL
hPa
Rain since
9am
mm
Dir  Spd
km/h
Gust
km/h
Spd
kts
Gust
kts
24/11:53pm 11.9 5.3 7.6 75 2.1 SW 32 52 17 28 1007.1 1007.1 6.6
24/11:30pm 11.6 5.4 7.9 78 1.8 SW 30 48 16 26 1006.5 1006.5 6.6
24/11:00pm 11.7 5.7 8.7 82 1.5 SW 30 46 16 25 1006.0 1006.0 6.6
24/10:53pm 11.5 5.8 8.4 81 1.5 WSW 28 46 15 25 1005.8 1005.8 6.6
24/10:30pm 10.6 7.6 9.2 91 0.7 WSW 15 28 8 15 1005.5 1005.5 6.6
24/10:00pm 10.4 7.6 8.7 89 0.8 W 13 22 7 12 1005.3 1005.3 6.0
24/09:30pm 11.3 6.8 6.2 71 2.4 W 19 28 10 15 1005.1 1005.1 6.0
24/09:00pm 10.9 6.9 6.6 75 2.0 W 17 28 9 15 1004.9 1004.9 6.0
24/08:30pm 10.5 6.9 6.6 77 1.8 W 15 26 8 14 1004.8 1004.8 6.0
24/08:00pm 9.8 6.0 6.0 77 1.7 W 15 20 8 11 1004.6 1004.6 6.0
24/07:30pm 9.2 5.8 6.1 81 1.4 W 13 20 7 11 1004.3 1004.3 6.0
24/07:00pm 8.1 5.2 6.4 89 0.8 NW 11 15 6 8 1003.8 1003.8 6.0
24/06:30pm 7.7 4.7 5.8 88 0.9 NW 11 13 6 7 1003.2 1003.2 6.0
24/06:00pm 8.2 4.0 5.8 85 1.1 NW 17 22 9 12 1002.6 1002.6 6.0
24/05:30pm 8.5 3.2 7.0 90 0.7 NW 24 33 13 18 1002.4 1002.4 6.0
24/05:00pm 9.5 1.6 6.2 80 1.5 NW 37 52 20 28 1002.0 1002.0 4.8
24/04:39pm 10.4 5.0 6.2 75 2.0 WNW 24 50 13 27 1002.0 1002.0 4.8
24/04:30pm 10.7 6.7 6.5 75 2.0 W 17 30 9 16 1001.7 1001.7 4.8
24/04:00pm 11.2 6.8 6.7 74 2.1 W 19 35 10 19 1001.4 1001.4 4.8
24/03:30pm 11.4 5.4 5.3 66 2.8 WNW 26 35 14 19 1001.4 1001.4 4.8
24/03:16pm 10.9 4.6 5.7 70 2.4 WNW 28 50 15 27 1001.3 1001.3 4.8
24/03:00pm 11.4 6.0 6.5 72 2.3 WNW 24 50 13 27 1001.2 1001.2 4.8
24/02:37pm 9.9 2.5 3.9 66 2.6 WNW 32 50 17 27 1001.1 1001.1 4.8
24/02:30pm 9.1 1.9 5.7 79 1.6 WNW 33 50 18 27 1001.4 1001.4 4.6
24/02:16pm 10.5 4.4 6.5 76 1.9 W 28 59 15 32 1001.6 1001.6 4.4
24/02:00pm 11.5 5.5 7.0 74 2.1 WNW 28 43 15 23 1001.2 1001.2 4.4
24/01:33pm 10.5 4.6 7.6 82 1.4 WNW 28 46 15 25 1001.1 1001.1 4.4
24/01:30pm 10.5 4.2 7.6 82 1.4 WNW 30 46 16 25 1001.1 1001.1 4.4
24/01:00pm 9.4 2.9 8.3 93 0.5 WNW 32 50 17 27 1001.2 1001.2 4.2
24/12:30pm 9.0 1.0 7.3 89 0.8 WNW 39 59 21 32 1001.6 1001.6 2.6
24/12:21pm 11.0 5.0 7.1 77 1.9 NW 28 48 15 26 1001.2 1001.2 1.6
24/12:00pm 10.5 4.9 8.6 88 0.9 WNW 28 43 15 23 1001.5 1001.5 1.6
24/11:30am 9.8 0.1 9.0 95 0.4 NW 50 72 27 39 1001.6 1001.6 1.6
24/11:29am 9.9 -0.2 9.0 94 0.4 NNW 52 72 28 39 1001.6 1001.6 1.4
24/11:26am 9.6 -0.6 8.5 93 0.5 NNW 52 72 28 39 1001.3 1001.3 1.2
24/11:18am 9.4 1.6 8.3 93 0.5 N 39 65 21 35 1001.2 1001.2 0.8
24/11:00am 9.5 2.7 7.8 89 0.8 N 33 50 18 27 1001.9 1001.9 0.2

Other Formats:

Comma delimited format used in spreadsheet applications
http://www.bom.gov.au/fwo/IDS60801/IDS60801.95816.axf

JavaScript Object Notation format (JSON) in row-major order
http://www.bom.gov.au/fwo/IDS60801/IDS60801.95816.json